createdAt,value
2023-01-11T08:00:28.323Z,23.33
2023-01-11T08:05:33.609Z,23.30
2023-01-11T08:24:18.311Z,23.80
2023-01-11T08:29:22.319Z,22.52
2023-01-11T08:34:26.132Z,23.40
2023-01-11T08:39:30.369Z,24.40
2023-01-11T08:44:49.330Z,21.77
2023-01-11T08:49:55.328Z,21.90
2023-01-11T08:55:10.603Z,23.70
2023-01-11T09:00:19.963Z,19.55
2023-01-11T09:05:28.771Z,19.27
2023-01-11T09:10:34.344Z,19.63
2023-01-11T09:15:37.481Z,17.50
2023-01-11T09:20:41.545Z,20.80
2023-01-11T09:25:47.761Z,18.52
2023-01-11T10:19:12.269Z,18.00
2023-01-11T10:24:34.051Z,17.48
2023-01-11T10:29:52.195Z,17.27
2023-01-11T10:34:57.692Z,17.47
2023-01-11T10:40:13.446Z,15.88
2023-01-11T10:45:21.102Z,16.93
2023-01-11T10:50:36.330Z,18.45
2023-01-11T10:55:51.555Z,14.07
2023-01-11T11:01:05.951Z,12.47
2023-01-11T11:06:22.229Z,12.27
2023-01-11T11:11:35.391Z,15.30
2023-01-11T11:16:54.949Z,14.05
2023-01-11T11:22:01.657Z,15.75
2023-01-11T11:27:26.877Z,14.67
2023-01-11T11:38:34.222Z,16.10
2023-01-11T11:44:22.030Z,15.77
2023-01-11T11:49:36.358Z,16.50
2023-01-11T11:54:53.219Z,15.03
2023-01-11T12:05:38.813Z,16.53
2023-01-11T12:10:58.818Z,17.58
2023-01-11T12:16:20.608Z,16.77
2023-01-11T12:27:09.351Z,17.02
2023-01-11T12:32:51.200Z,13.80
2023-01-11T12:38:41.477Z,14.40
2023-01-11T12:44:10.628Z,14.07
2023-01-11T12:49:54.886Z,13.10
2023-01-11T12:55:30.929Z,15.20
2023-01-11T13:01:29.399Z,12.27
2023-01-11T13:06:48.804Z,12.55
2023-01-11T13:12:25.315Z,13.95
2023-01-11T13:17:58.727Z,15.83
2023-01-11T13:23:12.336Z,15.07
2023-01-11T13:28:26.556Z,13.17
2023-01-11T13:33:36.343Z,16.13
2023-01-11T13:38:48.654Z,10.30
2023-01-11T13:44:26.964Z,13.33
2023-01-11T13:49:58.555Z,13.88
2023-01-11T13:55:25.133Z,12.47
2023-01-11T14:07:04.577Z,14.65
2023-01-11T14:12:29.500Z,14.47
2023-01-11T14:18:28.772Z,11.35
2023-01-11T14:23:54.048Z,16.27
2023-01-11T14:29:16.317Z,14.75
2023-01-11T14:34:53.254Z,14.93
2023-01-11T14:40:54.372Z,14.53
2023-01-11T14:53:27.318Z,13.53
2023-01-11T15:19:36.191Z,11.48
2023-01-11T15:24:44.360Z,12.43
2023-01-11T15:30:02.094Z,12.32
2023-01-11T15:35:35.292Z,15.50
2023-01-11T15:40:56.345Z,14.63
2023-01-11T15:46:56.531Z,14.48
2023-01-11T15:53:07.442Z,12.33
2023-01-11T16:04:30.858Z,12.23
2023-01-11T16:16:18.052Z,14.93
2023-01-11T16:21:43.652Z,16.00
2023-01-11T16:32:30.327Z,15.80
2023-01-11T16:37:46.051Z,15.23
2023-01-11T16:43:06.742Z,15.23
2023-01-11T16:48:39.693Z,16.47
2023-01-11T16:53:46.650Z,14.02
2023-01-11T16:59:23.968Z,13.18
2023-01-11T17:04:32.808Z,15.37
2023-01-11T17:09:45.946Z,17.30
2023-01-11T17:20:37.581Z,14.80
2023-01-11T17:25:49.838Z,19.98
2023-01-11T17:30:56.451Z,14.60
2023-01-11T17:36:07.549Z,18.65
2023-01-11T17:41:28.066Z,14.20
2023-01-11T17:46:43.384Z,17.35
2023-01-11T17:51:52.126Z,17.23
2023-01-11T17:57:00.569Z,20.03
2023-01-11T18:02:15.441Z,15.07
2023-01-11T18:07:30.055Z,16.63
2023-01-11T18:12:37.622Z,16.95
2023-01-11T18:17:48.100Z,16.73
2023-01-11T18:23:04.565Z,19.23
2023-01-11T18:28:28.765Z,20.58
2023-01-11T18:33:50.264Z,20.03
2023-01-11T18:39:00.281Z,17.70
2023-01-11T18:44:08.510Z,22.35
2023-01-11T18:49:23.775Z,17.50
2023-01-11T18:54:29.982Z,17.58
2023-01-11T18:59:34.988Z,21.00
2023-01-11T19:05:13.526Z,19.60
2023-01-11T19:10:21.954Z,18.52
2023-01-11T19:15:30.416Z,20.77
2023-01-11T19:20:39.191Z,19.27
2023-01-11T19:25:46.134Z,18.97
2023-01-11T19:30:53.125Z,17.83
2023-01-11T19:36:00.614Z,20.52
2023-01-11T19:41:10.652Z,23.53
2023-01-11T19:46:31.037Z,26.33
2023-01-11T19:51:42.070Z,24.73
2023-01-11T20:02:19.349Z,22.73
2023-01-11T20:07:30.697Z,21.40
2023-01-11T20:12:44.612Z,26.38
2023-01-11T20:17:49.926Z,20.77
2023-01-11T20:23:11.596Z,22.40
2023-01-11T20:28:22.084Z,24.08
2023-01-11T20:33:27.201Z,24.07
2023-01-11T20:38:36.204Z,23.63
2023-01-11T20:43:49.740Z,22.33
2023-01-11T20:48:55.955Z,20.92
2023-01-11T20:54:12.832Z,33.67
2023-01-11T20:59:22.870Z,23.30
2023-01-11T21:04:44.148Z,20.48
2023-01-11T21:10:15.938Z,23.60
2023-01-11T21:15:20.809Z,25.73
2023-01-11T21:20:25.167Z,26.20
2023-01-11T21:25:34.610Z,22.33
2023-01-11T21:30:38.343Z,20.70
2023-01-11T21:35:42.105Z,22.87
2023-01-11T21:40:47.962Z,22.00
2023-01-11T21:45:54.909Z,23.05
2023-01-11T21:51:00.285Z,22.70
2023-01-11T21:56:11.373Z,23.63
2023-01-11T22:01:19.730Z,21.83
2023-01-11T22:06:22.762Z,21.70
2023-01-11T22:11:28.107Z,22.05
2023-01-11T22:16:33.292Z,23.37
2023-01-11T22:21:38.147Z,22.35
2023-01-11T22:26:47.764Z,21.37
2023-01-11T22:31:57.086Z,24.73
2023-01-11T22:37:03.444Z,26.42
2023-01-11T22:42:09.092Z,21.53
2023-01-11T22:47:12.110Z,21.55
2023-01-11T22:52:28.105Z,20.77
2023-01-11T22:57:38.082Z,21.23
2023-01-11T23:02:46.410Z,20.33
2023-01-11T23:07:52.506Z,22.30
2023-01-11T23:13:00.507Z,16.17
2023-01-11T23:18:05.131Z,15.83
2023-01-11T23:23:08.408Z,18.45
2023-01-11T23:28:16.500Z,17.92
2023-01-11T23:33:19.970Z,18.73
2023-01-11T23:38:26.238Z,19.38
2023-01-11T23:43:32.354Z,15.50
2023-01-11T23:48:37.519Z,18.35
2023-01-11T23:53:51.542Z,17.40
2023-01-11T23:59:04.054Z,14.93
